Time;durP1;ratioP1;P1;durP2;ratioP2;P2;SDS_P1;SDS_P2;PMS_P1;PMS_P2;Temp;Humidity;BMP_temperature;BMP_pressure;BME280_temperature;BME280_humidity;BME280_pressure;Samples;Min_cycle;Max_cycle;Signal;HPM_P1;HPM_P2
2024/03/13 00:00:43;;;;;;;27.87;16.60;;;;;;;5.82;93.05;100181.59;5107772;28;20720;-64
2024/03/13 00:03:11;;;;;;;25.17;15.87;;;;;;;5.81;92.93;100180.72;5110062;28;20230;-63
2024/03/13 00:05:39;;;;;;;25.37;16.37;;;;;;;5.81;92.89;100184.97;5110939;28;20612;-65
2024/03/13 00:08:07;;;;;;;25.67;16.87;;;;;;;5.81;92.51;100178.16;5111434;28;20196;-64
2024/03/13 00:10:37;;;;;;;25.90;16.47;;;;;;;5.82;92.75;100181.59;5110643;28;20196;-63
2024/03/13 00:13:05;;;;;;;24.17;15.10;;;;;;;5.80;92.09;100179.00;5103015;28;20196;-63
2024/03/13 00:15:34;;;;;;;25.50;16.63;;;;;;;5.77;92.23;100184.09;5111550;28;20197;-66
2024/03/13 00:18:02;;;;;;;27.07;15.83;;;;;;;5.80;92.43;100196.91;5111553;28;20192;-66
2024/03/13 00:20:31;;;;;;;27.10;15.27;;;;;;;5.80;92.42;100186.69;5111161;28;20204;-72
2024/03/13 00:22:59;;;;;;;26.23;15.87;;;;;;;5.82;92.31;100186.72;5111059;28;20218;-65
2024/03/13 00:25:27;;;;;;;31.43;16.80;;;;;;;5.88;92.63;100191.00;5108173;28;20200;-67
2024/03/13 00:27:57;;;;;;;26.43;15.63;;;;;;;5.93;92.13;100186.81;5110668;28;20199;-64
2024/03/13 00:30:25;;;;;;;29.73;16.93;;;;;;;5.95;92.40;100183.44;5110111;28;20213;-64
2024/03/13 00:32:53;;;;;;;24.47;15.13;;;;;;;5.97;91.59;100178.38;5108145;28;20204;-63
2024/03/13 00:35:22;;;;;;;25.47;15.53;;;;;;;5.98;91.50;100190.31;5106729;28;20234;-65
2024/03/13 00:37:50;;;;;;;23.83;14.43;;;;;;;5.97;90.74;100186.03;5111276;28;20200;-65
2024/03/13 00:40:18;;;;;;;33.77;17.70;;;;;;;5.95;90.80;100182.59;5106546;28;20664;-64
2024/03/13 00:42:46;;;;;;;32.07;18.13;;;;;;;5.96;91.58;100179.19;5111726;28;20374;-63
2024/03/13 00:45:15;;;;;;;30.40;17.73;;;;;;;5.95;91.32;100180.88;5114556;28;20249;-63
2024/03/13 00:47:43;;;;;;;28.43;17.63;;;;;;;5.94;91.20;100180.88;5114619;28;20235;-63
2024/03/13 00:50:15;;;;;;;28.67;18.17;;;;;;;5.94;90.98;100186.84;5115382;28;20216;-64
2024/03/13 00:52:43;;;;;;;34.20;18.13;;;;;;;5.94;90.92;100183.44;5108600;28;20245;-64
2024/03/13 00:55:11;;;;;;;31.90;17.63;;;;;;;5.96;92.05;100179.19;5118080;27;20614;-63
2024/03/13 00:57:41;;;;;;;30.17;17.60;;;;;;;6.00;91.15;100180.91;5114974;28;20775;-63
2024/03/13 01:00:11;;;;;;;26.97;17.87;;;;;;;6.03;90.95;100183.50;5112674;28;20204;-64
2024/03/13 01:02:41;;;;;;;28.73;18.50;;;;;;;6.05;91.28;100171.59;5110585;28;20777;-63
2024/03/13 01:05:09;;;;;;;27.50;17.37;;;;;;;6.03;90.67;100181.81;5115337;28;20200;-64
2024/03/13 01:07:38;;;;;;;23.33;15.37;;;;;;;6.02;91.70;100181.81;5110661;28;20211;-64
2024/03/13 01:10:07;;;;;;;26.30;16.60;;;;;;;6.03;91.65;100179.25;5111554;28;20746;-64
2024/03/13 01:12:35;;;;;;;27.73;15.93;;;;;;;6.02;91.57;100179.25;5108954;28;20192;-63
2024/03/13 01:15:04;;;;;;;27.33;16.80;;;;;;;6.02;91.06;100176.69;5114719;28;20318;-63
2024/03/13 01:17:34;;;;;;;27.97;16.03;;;;;;;5.99;91.05;100181.78;5114436;28;20192;-63
2024/03/13 01:20:05;;;;;;;22.10;15.40;;;;;;;5.97;91.60;100186.03;5114781;28;20200;-64
2024/03/13 01:22:34;;;;;;;26.90;16.30;;;;;;;5.95;91.81;100177.47;5114535;28;20238;-62
2024/03/13 01:25:03;;;;;;;25.77;16.60;;;;;;;5.94;91.64;100181.75;5115043;28;20237;-62
2024/03/13 01:27:31;;;;;;;26.00;16.63;;;;;;;5.90;90.62;100187.63;5111694;27;20312;-64
2024/03/13 01:29:59;;;;;;;23.40;15.43;;;;;;;5.85;90.90;100180.75;5108521;28;20287;-63
2024/03/13 01:32:27;;;;;;;25.70;16.57;;;;;;;5.75;90.55;100178.13;5114077;27;20211;-63
2024/03/13 01:34:55;;;;;;;24.00;16.30;;;;;;;5.71;90.67;100184.03;5114595;28;20204;-64
2024/03/13 01:40:16;;;;;;;28.83;17.13;;;;;;;5.63;91.70;100180.53;5114119;28;20253;-63
2024/03/13 01:57:32;;;;;;;26.00;16.87;;;;;;;5.51;92.17;100175.28;5104703;28;20214;-64
2024/03/13 02:02:52;;;;;;;29.33;17.37;;;;;;;5.48;92.86;100170.16;5107290;28;20215;-64
2024/03/13 02:05:21;;;;;;;25.10;16.00;;;;;;;5.50;92.96;100177.00;5110664;27;20220;-63
2024/03/13 02:07:50;;;;;;;22.13;16.10;;;;;;;5.51;92.66;100180.41;5113411;28;20295;-65
2024/03/13 02:10:19;;;;;;;28.30;16.60;;;;;;;5.57;92.67;100185.59;5113642;28;20223;-64
2024/03/13 02:13:06;;;;;;;26.13;16.70;;;;;;;5.60;93.40;100177.09;5112373;28;20509;-64
2024/03/13 02:15:35;;;;;;;24.53;16.07;;;;;;;5.62;93.26;100183.09;5072116;28;20201;-63
2024/03/13 02:18:14;;;;;;;26.57;14.33;;;;;;;5.59;92.00;100186.44;5071338;28;20236;-62
2024/03/13 02:20:43;;;;;;;22.70;14.43;;;;;;;5.52;92.44;100180.44;5065646;28;20209;-64
2024/03/13 02:23:12;;;;;;;23.57;15.00;;;;;;;5.49;91.92;100182.97;5074030;28;20237;-64
2024/03/13 02:25:40;;;;;;;22.40;15.00;;;;;;;5.46;91.93;100182.06;5066478;28;20205;-64
2024/03/13 02:28:08;;;;;;;20.93;14.30;;;;;;;5.45;92.36;100182.88;5065423;28;20205;-64
2024/03/13 02:30:36;;;;;;;22.17;14.83;;;;;;;5.44;92.21;100183.72;5048641;28;20215;-64
2024/03/13 02:33:04;;;;;;;22.50;15.27;;;;;;;5.45;92.94;100186.31;5054022;28;20289;-63
2024/03/13 02:35:33;;;;;;;20.53;14.13;;;;;;;5.47;92.45;100183.78;5052826;28;20225;-64
2024/03/13 02:38:01;;;;;;;23.23;14.73;;;;;;;5.47;92.27;100183.78;5051508;28;20205;-64
2024/03/13 02:40:29;;;;;;;21.90;15.70;;;;;;;5.47;92.68;100183.78;5045103;28;20664;-65
2024/03/13 02:42:57;;;;;;;22.43;15.37;;;;;;;5.47;92.38;100188.88;5051331;28;20209;-65
2024/03/13 02:45:25;;;;;;;21.93;14.40;;;;;;;5.47;92.60;100189.72;5054943;28;20205;-64
2024/03/13 02:47:53;;;;;;;22.40;14.47;;;;;;;5.50;92.43;100191.47;5054769;28;20803;-64
2024/03/13 02:50:21;;;;;;;22.10;14.73;;;;;;;5.48;92.55;100182.91;5054647;28;20205;-63
2024/03/13 02:52:49;;;;;;;18.50;12.63;;;;;;;5.44;92.02;100187.13;5054254;28;20664;-63
2024/03/13 02:55:18;;;;;;;21.30;13.33;;;;;;;5.43;92.17;100195.66;5053827;28;20205;-63
2024/03/13 02:57:47;;;;;;;20.40;12.70;;;;;;;5.40;92.46;100187.94;5051977;28;20251;-63
2024/03/13 03:00:15;;;;;;;18.80;12.53;;;;;;;5.40;91.83;100192.19;5049670;28;20280;-64
2024/03/13 03:02:46;;;;;;;19.83;13.23;;;;;;;5.38;92.41;100199.88;5052461;28;20248;-64
2024/03/13 03:05:14;;;;;;;14.87;10.73;;;;;;;5.37;91.90;100195.56;5052978;28;20206;-64
2024/03/13 03:07:43;;;;;;;17.60;11.73;;;;;;;5.35;91.00;100197.25;5054194;28;20710;-64
2024/03/13 03:10:11;;;;;;;16.53;11.77;;;;;;;5.32;91.44;100195.53;5068780;28;20217;-63
2024/03/13 03:12:40;;;;;;;17.80;11.80;;;;;;;5.33;91.77;100202.34;5054513;28;20205;-65
2024/03/13 03:15:08;;;;;;;16.17;11.13;;;;;;;5.36;91.09;100204.09;5106728;28;20239;-62
2024/03/13 03:17:36;;;;;;;16.80;12.03;;;;;;;5.35;91.37;100210.03;5083170;28;20208;-64
2024/03/13 03:20:06;;;;;;;16.97;12.43;;;;;;;5.36;91.39;100210.91;5108577;28;20207;-62
2024/03/13 03:22:34;;;;;;;17.63;11.40;;;;;;;5.39;91.17;100208.38;5094977;28;20564;-63
2024/03/13 03:25:02;;;;;;;17.43;12.20;;;;;;;5.39;90.98;100210.94;5105721;28;20291;-63
2024/03/13 03:27:30;;;;;;;16.57;12.17;;;;;;;5.38;91.14;100204.97;5094060;28;20200;-63
2024/03/13 03:29:58;;;;;;;16.90;12.00;;;;;;;5.43;91.19;100212.69;5096152;28;20192;-63
2024/03/13 03:32:26;;;;;;;16.40;11.13;;;;;;;5.49;91.55;100207.66;5090816;28;20223;-63
2024/03/13 03:34:54;;;;;;;19.67;12.40;;;;;;;5.53;91.30;100215.38;5089449;28;20663;-65
2024/03/13 03:37:23;;;;;;;16.57;10.93;;;;;;;5.52;91.23;100203.44;5090426;28;20206;-64
2024/03/13 03:39:51;;;;;;;16.83;11.80;;;;;;;5.54;90.36;100201.75;5094160;28;20280;-62
2024/03/13 03:42:19;;;;;;;19.37;12.10;;;;;;;5.53;90.22;100207.69;5093155;28;20211;-62
2024/03/13 03:44:47;;;;;;;18.57;12.13;;;;;;;5.54;90.74;100206.00;5088746;28;20228;-62
2024/03/13 03:47:15;;;;;;;18.60;12.60;;;;;;;5.54;91.06;100203.44;5105819;28;20200;-63
2024/03/13 03:49:43;;;;;;;17.37;12.37;;;;;;;5.55;90.50;100207.72;5087314;28;20200;-63
2024/03/13 03:52:12;;;;;;;18.70;12.53;;;;;;;5.56;91.09;100212.84;5088493;28;20222;-65
2024/03/13 03:54:40;;;;;;;16.40;12.33;;;;;;;5.60;90.76;100207.75;5107886;28;20203;-63
2024/03/13 03:57:09;;;;;;;17.77;12.07;;;;;;;5.58;91.20;100208.59;5091638;28;20196;-63
2024/03/13 03:59:38;;;;;;;18.13;12.97;;;;;;;5.57;90.43;100211.16;5091783;28;20231;-63
2024/03/13 04:02:07;;;;;;;14.17;10.83;;;;;;;5.58;91.00;100223.09;5091379;28;20219;-63
2024/03/13 04:04:35;;;;;;;14.20;10.43;;;;;;;5.54;90.64;100216.22;5093699;28;20219;-63
2024/03/13 04:07:03;;;;;;;15.63;11.63;;;;;;;5.52;90.61;100217.91;5091022;28;20201;-63
2024/03/13 04:09:31;;;;;;;21.17;11.83;;;;;;;5.47;90.00;100215.28;5090710;28;20214;-62
2024/03/13 04:11:59;;;;;;;17.63;12.40;;;;;;;5.43;89.91;100220.34;5103391;28;20200;-62
2024/03/13 04:14:27;;;;;;;16.60;10.87;;;;;;;5.41;89.80;100227.97;5087503;28;20710;-64
2024/03/13 04:16:55;;;;;;;18.63;12.27;;;;;;;5.39;89.75;100227.13;5090771;28;20207;-63
2024/03/13 04:19:23;;;;;;;16.83;11.07;;;;;;;5.38;90.64;100222.00;5097980;27;20226;-62
2024/03/13 04:21:51;;;;;;;19.87;13.13;;;;;;;5.41;90.77;100225.44;5109963;28;20665;-63
2024/03/13 04:24:19;;;;;;;19.47;12.33;;;;;;;5.46;90.88;100228.06;5107269;28;20226;-63
2024/03/13 04:26:47;;;;;;;19.07;12.60;;;;;;;5.43;90.32;100228.88;5101765;28;20667;-63
2024/03/13 04:29:15;;;;;;;18.10;12.20;;;;;;;5.39;90.33;100228.81;5091632;28;20211;-63
2024/03/13 04:31:43;;;;;;;18.57;12.73;;;;;;;5.40;90.90;100230.53;5103227;28;20560;-64
2024/03/13 04:34:11;;;;;;;20.47;12.50;;;;;;;5.42;91.09;100233.97;5087951;28;20241;-65
2024/03/13 04:36:39;;;;;;;18.97;13.13;;;;;;;5.43;90.79;100238.25;5086347;28;20234;-62
2024/03/13 04:39:07;;;;;;;21.53;13.07;;;;;;;5.43;90.69;100238.25;5092800;28;20199;-63
2024/03/13 04:41:39;;;;;;;18.73;12.40;;;;;;;5.41;90.53;100234.78;5086402;28;20654;-62
2024/03/13 04:44:09;;;;;;;20.47;13.77;;;;;;;5.43;91.45;100239.09;5091960;28;20231;-63
2024/03/13 04:46:38;;;;;;;20.53;12.67;;;;;;;5.46;91.31;100235.72;5092806;28;20241;-62
2024/03/13 04:49:08;;;;;;;22.73;14.10;;;;;;;5.44;91.22;100240.81;5084689;28;20211;-63
2024/03/13 04:51:37;;;;;;;22.70;15.67;;;;;;;5.41;90.66;100240.75;5088943;28;20295;-63
2024/03/13 04:54:07;;;;;;;27.70;18.73;;;;;;;5.37;91.15;100238.16;5109803;28;20519;-64
2024/03/13 04:56:35;;;;;;;29.23;17.90;;;;;;;5.35;91.53;100244.97;5087228;28;20203;-64
2024/03/13 04:59:03;;;;;;;24.70;16.13;;;;;;;5.23;91.83;100235.44;5100632;28;20689;-64
2024/03/13 05:01:31;;;;;;;24.93;15.90;;;;;;;5.21;91.96;100247.31;5106429;28;20618;-64
2024/03/13 05:03:59;;;;;;;22.50;16.03;;;;;;;5.18;93.17;100244.72;5091663;28;20581;-64
2024/03/13 05:06:27;;;;;;;22.37;15.27;;;;;;;5.17;93.04;100248.13;5100562;28;20204;-65
2024/03/13 05:08:55;;;;;;;22.03;14.13;;;;;;;5.17;92.81;100254.09;5091599;28;20219;-63
2024/03/13 05:11:24;;;;;;;22.83;14.20;;;;;;;5.18;93.52;100253.25;5092300;28;20613;-65
2024/03/13 05:13:54;;;;;;;19.83;12.43;;;;;;;5.16;93.52;100254.06;5086736;28;20628;-67
2024/03/13 05:16:23;;;;;;;20.57;12.63;;;;;;;5.18;93.24;100257.50;5084773;28;20227;-62
2024/03/13 05:18:52;;;;;;;18.70;12.07;;;;;;;5.14;93.36;100259.16;5089742;28;20200;-63
2024/03/13 05:21:21;;;;;;;21.50;12.87;;;;;;;5.13;93.43;100260.00;5090495;28;20196;-63
2024/03/13 05:23:49;;;;;;;16.93;11.73;;;;;;;5.15;94.40;100273.63;5106399;28;20562;-63
2024/03/13 05:26:17;;;;;;;19.37;13.10;;;;;;;5.17;93.96;100266.84;5094091;28;20269;-63
2024/03/13 05:28:46;;;;;;;21.60;13.17;;;;;;;5.21;93.88;100273.72;5089478;28;20848;-63
2024/03/13 05:31:14;;;;;;;20.87;11.93;;;;;;;5.25;94.33;100275.47;5096602;28;20654;-63
2024/03/13 05:33:43;;;;;;;16.80;11.97;;;;;;;5.31;94.35;100279.81;5095870;28;20820;-63
2024/03/13 05:36:11;;;;;;;22.90;12.97;;;;;;;5.34;94.15;100284.97;5089294;28;20215;-63
2024/03/13 05:38:39;;;;;;;18.77;12.63;;;;;;;5.40;93.85;100284.19;5094283;28;20200;-63
2024/03/13 05:41:08;;;;;;;19.67;12.13;;;;;;;5.42;93.20;100285.09;5089056;28;20944;-65
2024/03/13 05:43:36;;;;;;;17.37;12.43;;;;;;;5.38;93.33;100291.00;5089236;28;20211;-65
2024/03/13 05:46:05;;;;;;;18.33;11.63;;;;;;;5.37;92.98;100291.81;5090661;28;20196;-64
2024/03/13 05:48:33;;;;;;;18.47;12.90;;;;;;;5.36;93.18;100290.09;5092137;28;20210;-62
2024/03/13 05:51:02;;;;;;;21.43;13.23;;;;;;;5.36;92.91;100292.66;5096205;28;20555;-62
2024/03/13 05:53:30;;;;;;;21.03;13.40;;;;;;;5.36;93.07;100290.09;5108621;28;20200;-64
2024/03/13 05:55:58;;;;;;;21.27;13.20;;;;;;;5.37;93.27;100295.22;5089017;28;20650;-62
2024/03/13 05:58:26;;;;;;;17.07;12.77;;;;;;;5.40;93.29;100296.97;5088902;28;20196;-64
2024/03/13 06:00:54;;;;;;;17.83;12.10;;;;;;;5.41;93.31;100302.09;5093538;28;20200;-63
2024/03/13 06:03:25;;;;;;;18.00;12.60;;;;;;;5.42;93.57;100302.97;5094360;28;20204;-62
2024/03/13 06:05:53;;;;;;;21.07;13.93;;;;;;;5.44;93.47;100299.56;5093511;28;20309;-62
2024/03/13 06:08:21;;;;;;;17.87;12.03;;;;;;;5.44;93.05;100302.13;5094331;28;20720;-62
2024/03/13 06:10:49;;;;;;;17.77;11.60;;;;;;;5.44;92.70;100306.38;5095976;27;20234;-64
2024/03/13 06:13:18;;;;;;;16.03;11.43;;;;;;;5.45;92.97;100311.53;5101150;27;20199;-64
2024/03/13 06:15:46;;;;;;;17.70;11.97;;;;;;;5.46;92.93;100304.72;5099962;28;20616;-65
2024/03/13 06:18:15;;;;;;;17.20;11.53;;;;;;;5.54;92.82;100313.34;5095676;28;20208;-63
2024/03/13 06:20:43;;;;;;;17.90;12.03;;;;;;;5.61;93.14;100309.19;5091704;28;20204;-62
2024/03/13 06:23:15;;;;;;;23.30;14.97;;;;;;;5.62;92.19;100316.84;5085714;28;20211;-62
2024/03/13 06:25:45;;;;;;;23.73;16.20;;;;;;;5.58;92.37;100322.75;5095020;28;20674;-64
2024/03/13 06:31:01;;;;;;;22.03;15.70;;;;;;;5.50;91.85;100320.13;5100974;28;20199;-62
2024/03/13 06:33:31;;;;;;;26.33;17.00;;;;;;;5.47;92.27;100324.31;5088933;27;20647;-61
2024/03/13 06:35:59;;;;;;;24.47;15.60;;;;;;;5.45;92.11;100324.31;5092610;28;20196;-63
2024/03/13 06:38:27;;;;;;;29.83;16.63;;;;;;;5.48;92.86;100333.69;5094181;28;20685;-63
2024/03/13 06:40:55;;;;;;;24.63;16.00;;;;;;;5.51;92.77;100334.59;5091343;28;20214;-63
2024/03/13 06:43:24;;;;;;;21.27;15.13;;;;;;;5.57;92.78;100329.59;5090613;28;20207;-66
2024/03/13 06:45:52;;;;;;;22.93;15.63;;;;;;;5.60;92.71;100333.88;5092683;28;20212;-61
2024/03/13 06:48:20;;;;;;;27.40;15.10;;;;;;;5.62;92.80;100337.31;5089065;28;20621;-64
2024/03/13 06:50:48;;;;;;;27.40;14.93;;;;;;;5.62;91.91;100337.31;5108875;28;20257;-61
2024/03/13 06:53:16;;;;;;;21.70;13.80;;;;;;;5.59;92.45;100332.16;5090215;28;20595;-60
2024/03/13 06:55:45;;;;;;;22.13;13.80;;;;;;;5.58;91.89;100335.53;5078320;28;20207;-65
2024/03/13 06:58:13;;;;;;;22.93;12.77;;;;;;;5.57;92.36;100338.94;5093960;28;20214;-63
2024/03/13 07:00:42;;;;;;;19.67;13.13;;;;;;;5.57;92.24;100342.34;5099122;28;20226;-60
2024/03/13 07:03:10;;;;;;;19.40;12.20;;;;;;;5.62;91.93;100341.56;5093079;28;20203;-61
2024/03/13 07:05:38;;;;;;;22.60;12.87;;;;;;;5.63;92.00;100344.13;5093594;28;20215;-64
2024/03/13 07:08:06;;;;;;;20.67;13.23;;;;;;;5.68;92.02;100347.63;5085745;28;20225;-62
2024/03/13 07:10:34;;;;;;;20.57;13.20;;;;;;;5.69;91.92;100344.22;5085830;28;20204;-63
2024/03/13 07:13:03;;;;;;;20.17;12.17;;;;;;;5.68;91.54;100357.84;5094055;28;20234;-63
2024/03/13 07:15:31;;;;;;;23.00;13.10;;;;;;;5.68;92.16;100352.72;5090674;28;20208;-63
2024/03/13 07:17:59;;;;;;;21.33;12.60;;;;;;;5.69;91.48;100359.56;5100542;28;20199;-61
2024/03/13 07:20:28;;;;;;;17.57;12.50;;;;;;;5.64;91.91;100356.09;5094068;28;20204;-62
2024/03/13 07:22:56;;;;;;;21.97;13.17;;;;;;;5.64;92.13;100361.19;5092785;28;20659;-68
2024/03/13 07:25:24;;;;;;;20.30;13.27;;;;;;;5.63;92.14;100364.56;5110337;28;20675;-63
2024/03/13 07:27:52;;;;;;;23.13;13.33;;;;;;;5.67;92.05;100361.25;5093342;28;20235;-63
2024/03/13 07:30:20;;;;;;;21.67;13.87;;;;;;;5.65;92.00;100360.34;5090206;28;20251;-63
2024/03/13 07:32:52;;;;;;;21.93;12.67;;;;;;;5.64;91.97;100363.75;5101267;28;20295;-65
2024/03/13 07:35:20;;;;;;;17.33;12.67;;;;;;;5.63;91.35;100363.72;5089497;28;20206;-61
2024/03/13 07:37:49;;;;;;;19.13;12.93;;;;;;;5.66;91.65;100361.22;5095095;28;20196;-62
2024/03/13 07:40:18;;;;;;;20.03;14.17;;;;;;;5.71;91.83;100367.25;5094262;28;20290;-66
2024/03/13 07:42:46;;;;;;;20.13;13.63;;;;;;;5.75;91.81;100376.69;5088429;28;20244;-65
2024/03/13 07:45:18;;;;;;;23.70;13.37;;;;;;;5.75;91.31;100374.13;5094497;28;20216;-66
2024/03/13 07:47:46;;;;;;;20.03;13.27;;;;;;;5.74;91.92;100378.38;5099124;28;20261;-65
2024/03/13 07:50:14;;;;;;;23.30;13.73;;;;;;;5.78;91.32;100377.59;5090513;28;20210;-67
2024/03/13 07:52:42;;;;;;;18.80;11.93;;;;;;;5.78;91.24;100380.16;5099460;28;20204;-70
2024/03/13 07:55:10;;;;;;;17.17;12.23;;;;;;;5.79;91.59;100371.63;5088591;28;20581;-68
2024/03/13 07:57:38;;;;;;;24.93;15.13;;;;;;;5.87;91.32;100378.53;5094663;28;20204;-67
2024/03/13 08:00:07;;;;;;;21.27;13.00;;;;;;;5.92;90.46;100376.88;5094036;28;20208;-66
2024/03/13 08:02:35;;;;;;;17.77;11.83;;;;;;;5.93;90.30;100386.28;5093265;28;20249;-68
2024/03/13 08:05:03;;;;;;;15.23;11.27;;;;;;;5.90;89.86;100383.69;5108170;28;20224;-68
2024/03/13 08:07:32;;;;;;;17.63;11.70;;;;;;;5.89;89.92;100381.97;5086802;28;20212;-68
2024/03/13 08:10:18;;;;;;;16.23;11.50;;;;;;;5.92;89.64;100387.13;5101555;28;20286;-66
2024/03/13 08:13:03;;;;;;;18.43;11.87;;;;;;;5.97;90.17;100386.38;5106260;28;20222;-67
2024/03/13 08:15:48;;;;;;;15.93;11.10;;;;;;;6.04;90.47;100384.75;5094507;28;20187;-67
2024/03/13 08:18:34;;;;;;;14.93;10.33;;;;;;;6.12;89.30;100389.97;5108673;27;20202;-69
2024/03/13 08:21:19;;;;;;;17.40;11.07;;;;;;;6.13;89.63;100386.56;5107529;28;20206;-66
2024/03/13 08:24:05;;;;;;;15.97;11.27;;;;;;;6.18;89.62;100388.31;5096477;28;20558;-66
2024/03/13 08:26:51;;;;;;;13.97;10.33;;;;;;;6.21;89.22;100390.06;5096011;28;20215;-66
2024/03/13 08:29:36;;;;;;;15.77;11.07;;;;;;;6.16;88.25;100395.13;5094166;28;20567;-65
2024/03/13 08:32:23;;;;;;;14.57;9.90;;;;;;;6.09;88.06;100393.34;5092914;28;20203;-64
2024/03/13 08:35:09;;;;;;;15.37;10.90;;;;;;;6.02;88.33;100394.09;5094828;28;20566;-65
2024/03/13 08:37:57;;;;;;;19.27;11.47;;;;;;;5.99;88.36;100387.25;5102424;28;20207;-66
2024/03/13 08:40:42;;;;;;;14.57;10.07;;;;;;;6.02;89.25;100394.97;5097865;28;20207;-66
2024/03/13 08:43:28;;;;;;;17.60;11.33;;;;;;;6.08;89.18;100399.31;5092956;28;20241;-66
2024/03/13 08:46:13;;;;;;;13.07;10.00;;;;;;;6.10;88.19;100400.16;5093338;28;20223;-66
2024/03/13 08:49:01;;;;;;;15.00;10.37;;;;;;;6.06;88.48;100406.09;5089174;28;20303;-66
2024/03/13 08:51:46;;;;;;;17.40;11.07;;;;;;;5.99;87.78;100404.28;5094680;28;20201;-66
2024/03/13 08:54:32;;;;;;;15.23;11.37;;;;;;;5.94;88.16;100416.19;5098436;28;20675;-64
2024/03/13 08:57:19;;;;;;;16.63;11.10;;;;;;;5.90;88.55;100415.25;5095335;28;20284;-65
2024/03/13 09:00:05;;;;;;;17.30;12.60;;;;;;;5.83;88.48;100418.56;5092508;28;20215;-66
2024/03/13 09:02:55;;;;;;;16.60;11.93;;;;;;;5.80;88.85;100421.06;5104890;28;20731;-66
2024/03/13 09:05:40;;;;;;;20.27;12.77;;;;;;;5.81;89.12;100418.50;5096336;27;20272;-65
2024/03/13 09:08:24;;;;;;;20.63;12.70;;;;;;;5.82;89.45;100422.81;5102899;28;20647;-65
2024/03/13 09:11:12;;;;;;;19.37;12.63;;;;;;;5.83;89.59;100423.66;5108123;28;20211;-67
2024/03/13 09:13:41;;;;;;;19.07;12.17;;;;;;;5.85;89.75;100421.13;5096519;28;20231;-66
2024/03/13 09:16:12;;;;;;;18.83;11.67;;;;;;;5.84;89.10;100421.97;5096123;28;20192;-66
2024/03/13 09:18:41;;;;;;;16.07;12.13;;;;;;;5.85;89.25;100421.97;5104287;28;20208;-63
2024/03/13 09:21:10;;;;;;;16.37;11.60;;;;;;;5.84;89.63;100419.41;5090875;28;20261;-66
2024/03/13 09:23:38;;;;;;;15.63;11.37;;;;;;;5.81;89.00;100420.22;5095522;28;20708;-68
2024/03/13 09:26:06;;;;;;;17.73;11.87;;;;;;;5.81;88.72;100423.63;5096914;28;20219;-67
2024/03/13 09:28:34;;;;;;;17.73;11.17;;;;;;;5.85;89.09;100424.53;5097123;28;20298;-67
2024/03/13 09:31:02;;;;;;;16.17;11.90;;;;;;;5.85;89.10;100421.97;5096883;28;20208;-67
2024/03/13 09:33:31;;;;;;;17.23;11.67;;;;;;;5.90;89.09;100425.47;5089773;28;20216;-65
2024/03/13 09:36:00;;;;;;;18.30;12.13;;;;;;;5.92;88.84;100425.47;5098937;28;20315;-67
2024/03/13 09:38:30;;;;;;;17.23;11.37;;;;;;;5.96;89.14;100424.72;5092111;28;20200;-66
2024/03/13 09:40:59;;;;;;;17.67;11.77;;;;;;;5.95;88.88;100428.13;5096102;28;20235;-66
2024/03/13 09:43:29;;;;;;;20.83;11.37;;;;;;;5.98;89.11;100436.69;5096685;28;20204;-71
2024/03/13 09:45:57;;;;;;;19.80;12.00;;;;;;;6.03;89.23;100439.28;5096991;28;20678;-70
2024/03/13 09:48:25;;;;;;;19.13;10.63;;;;;;;6.04;88.97;100441.03;5098651;28;20203;-67
2024/03/13 09:50:55;;;;;;;13.07;10.23;;;;;;;6.05;88.65;100446.16;5101058;28;20212;-66
2024/03/13 09:53:24;;;;;;;15.63;11.10;;;;;;;6.01;87.69;100444.41;5095754;28;20214;-68
2024/03/13 09:55:52;;;;;;;13.33;9.73;;;;;;;5.96;87.78;100450.28;5113423;28;20636;-67
2024/03/13 09:58:21;;;;;;;16.80;11.40;;;;;;;5.95;88.26;100456.25;5093922;28;20695;-72
2024/03/13 10:00:49;;;;;;;16.70;10.93;;;;;;;5.93;87.76;100451.13;5105185;28;20211;-69
2024/03/13 10:03:21;;;;;;;16.17;10.77;;;;;;;5.92;87.87;100458.72;5095856;28;20200;-70
2024/03/13 10:05:50;;;;;;;14.37;10.20;;;;;;;5.88;88.55;100462.06;5087950;28;20282;-71
2024/03/13 10:08:19;;;;;;;14.97;10.87;;;;;;;5.85;88.20;100456.91;5088298;28;20291;-66
2024/03/13 10:10:47;;;;;;;15.63;10.20;;;;;;;5.84;88.72;100470.56;5092664;28;20204;-70
2024/03/13 10:13:15;;;;;;;16.37;11.00;;;;;;;5.83;88.76;100464.56;5089712;28;20578;-68
2024/03/13 10:15:43;;;;;;;16.70;10.73;;;;;;;5.85;88.51;100465.44;5088291;28;20224;-69
2024/03/13 10:18:13;;;;;;;14.83;10.03;;;;;;;5.88;88.87;100467.19;5095928;28;20212;-69
2024/03/13 10:20:43;;;;;;;18.10;10.40;;;;;;;5.97;89.75;100462.25;5090468;28;20307;-69
2024/03/13 10:23:12;;;;;;;15.13;10.87;;;;;;;6.09;89.78;100469.22;5093618;28;20203;-68
2024/03/13 10:25:41;;;;;;;14.57;10.83;;;;;;;6.17;88.24;100454.84;5093814;28;20216;-68
2024/03/13 10:28:11;;;;;;;14.87;9.53;;;;;;;6.21;87.47;100456.59;5092281;28;20230;-67
2024/03/13 10:30:39;;;;;;;14.13;10.47;;;;;;;6.20;87.65;100454.88;5095444;28;20196;-67
2024/03/13 10:33:08;;;;;;;14.57;9.60;;;;;;;6.19;87.88;100455.72;5108492;28;20694;-68
2024/03/13 10:35:36;;;;;;;14.20;9.80;;;;;;;6.20;87.22;100455.72;5106751;28;20204;-69
2024/03/13 10:38:04;;;;;;;16.60;10.57;;;;;;;6.19;87.09;100451.47;5095318;28;20208;-68
2024/03/13 10:40:32;;;;;;;17.60;10.60;;;;;;;6.21;86.66;100452.31;5086460;28;20613;-69
2024/03/13 10:43:00;;;;;;;15.30;10.50;;;;;;;6.25;86.99;100463.47;5094815;28;20253;-69
2024/03/13 10:45:28;;;;;;;14.13;9.97;;;;;;;6.27;86.92;100459.25;5112595;28;20634;-68
2024/03/13 10:47:57;;;;;;;14.33;10.10;;;;;;;6.26;85.90;100458.38;5095256;28;20227;-69
2024/03/13 10:50:25;;;;;;;12.57;9.60;;;;;;;6.26;85.40;100460.94;5107421;28;20216;-68
2024/03/13 10:52:53;;;;;;;13.13;9.63;;;;;;;6.32;86.55;100459.28;5094882;28;20216;-67
2024/03/13 10:55:21;;;;;;;14.53;9.27;;;;;;;6.37;85.86;100460.19;5095548;28;20200;-64
2024/03/13 10:57:52;;;;;;;15.27;9.83;;;;;;;6.42;85.54;100459.41;5094407;28;20291;-67
2024/03/13 11:00:22;;;;;;;13.63;9.77;;;;;;;6.45;85.78;100461.16;5093984;28;20222;-68
2024/03/13 11:02:50;;;;;;;14.17;9.93;;;;;;;6.50;86.06;100465.47;5095258;28;20229;-68
2024/03/13 11:05:19;;;;;;;12.77;8.73;;;;;;;6.52;85.10;100457.84;5094659;28;20638;-68
2024/03/13 11:07:47;;;;;;;14.93;10.40;;;;;;;6.50;85.07;100460.38;5094461;28;20227;-68
2024/03/13 11:10:21;;;;;;;14.30;10.20;;;;;;;6.54;85.18;100457.00;5107828;28;20211;-69
2024/03/13 11:12:50;;;;;;;14.77;9.80;;;;;;;6.53;84.91;100454.44;5102815;28;20667;-69
2024/03/13 11:15:19;;;;;;;14.10;10.17;;;;;;;6.52;84.88;100450.16;5112003;28;20331;-69
2024/03/13 11:17:50;;;;;;;14.17;9.93;;;;;;;6.52;85.71;100453.56;5094838;28;20718;-67
2024/03/13 11:20:20;;;;;;;14.57;10.97;;;;;;;6.58;86.20;100455.31;5094921;28;20215;-68
2024/03/13 11:22:49;;;;;;;17.07;10.03;;;;;;;6.59;84.37;100454.50;5090994;28;20209;-65
2024/03/13 11:25:18;;;;;;;16.47;10.47;;;;;;;6.53;84.00;100459.53;5096265;27;20203;-70
2024/03/13 11:27:47;;;;;;;17.13;11.03;;;;;;;6.48;84.00;100456.06;5089774;28;20219;-70
2024/03/13 11:30:16;;;;;;;15.83;10.20;;;;;;;6.37;84.71;100455.06;5101073;28;20211;-69
2024/03/13 11:32:44;;;;;;;17.33;10.83;;;;;;;6.29;84.57;100455.84;5090562;27;20596;-67
2024/03/13 11:35:14;;;;;;;17.33;10.83;;;;;;;6.28;85.05;100456.69;5093940;28;20227;-67
2024/03/13 11:37:42;;;;;;;17.00;10.63;;;;;;;6.29;85.56;100444.75;5094772;28;20204;-66
2024/03/13 11:40:11;;;;;;;14.87;10.70;;;;;;;6.35;85.69;100442.28;5094324;27;20651;-65
2024/03/13 11:42:40;;;;;;;19.77;12.00;;;;;;;6.48;86.07;100450.94;5096588;28;20571;-66
2024/03/13 11:45:15;;;;;;;19.67;11.67;;;;;;;6.56;86.15;100444.22;5094830;28;20631;-68
2024/03/13 11:47:47;;;;;;;16.90;11.37;;;;;;;6.68;85.20;100449.47;5110147;28;20231;-66
2024/03/13 11:50:16;;;;;;;17.80;11.47;;;;;;;6.74;85.16;100436.75;5088830;28;20327;-67
2024/03/13 11:53:08;;;;;;;16.77;10.60;;;;;;;6.82;84.55;100441.09;5111141;28;20286;-66